Marina Del Rey, California
Current Conditions -  °F | °C
As of 12:51 PM on Monday 24 Nov 2014 (Local Time) from KSMO Reporting Station
Clear Clear  
Wind Chill: 24°   Ceiling: Unl
Heat Index: 24°   Visibility: 10mi
Dew Point:   Wind: 8mph
Humidity: 20%   Direction: 230°SW
Pressure: 30.19"   Gusts: NA
Location:  33.98°N, 118.45°W
Report Text: KSMO 242051Z 23007KT 10SM CLR 24/00 A3019 RMK AO2 SLP221 T02440000 58017
Loading
Personal Weather Stations






























Interactive Weather Map New forecast layout! Learn more

10-Day Weather Forecast

Advertisements
Track Severe Weather on mobile